logo
Search for airport 
image banner adimage banner adimage banner ad
image banner ad

EDAK - Grossenhain

Located in Grossenhain, Germany

ICAO - EDAK, IATA -

Data provided by Airmate  

General information

Coordinates: N51°18'24" E13°33'19"
Elevation is 417 feet MSL.
 
View others Airports in Saxony

Operational data

Special qualification required
Current time UTC:
Current local time:
Weather at : EDDC - Dresden ( 24 km )
METAR: EDDC 241950Z AUTO 13001KT CAVOK 12/09 Q1028 NOSIG
TAF: TAF EDDC 241700Z 2418/2518 11004KT CAVOK BECMG 2507/2509 12010KT
View NOTAMs / SUP AIP / TFR affecting this airport [VIEW]
Communications frequencies: [VIEW]

Runways:

RWY identifierQFULength (ft)Width (ft)SurfaceLDA (ft)
11116°4642157CONC4642
29296°4642157CONC3871

Airport contact information

Address: Grossenhain Germany

Satellite view of EDAK